createdAt,value
2022-12-22T00:02:38.975Z,54.63
2022-12-22T00:05:36.555Z,68.45
2022-12-22T00:08:22.576Z,58.42
2022-12-22T00:11:08.065Z,53.92
2022-12-22T00:13:54.340Z,54.40
2022-12-22T00:16:40.591Z,57.33
2022-12-22T00:19:32.178Z,55.08
2022-12-22T00:22:41.127Z,57.60
2022-12-22T00:25:31.973Z,57.95
2022-12-22T00:28:18.482Z,55.85
2022-12-22T00:31:05.347Z,59.72
2022-12-22T00:33:51.457Z,49.20
2022-12-22T00:36:41.721Z,47.25
2022-12-22T00:39:35.790Z,48.05
2022-12-22T00:42:21.563Z,48.22
2022-12-22T00:45:07.439Z,55.50
2022-12-22T00:53:29.819Z,43.03
2022-12-22T00:56:15.654Z,40.15
2022-12-22T01:26:01.664Z,27.38
2022-12-22T01:28:48.961Z,51.00
2022-12-22T01:31:50.320Z,35.80
2022-12-22T01:34:36.217Z,26.17
2022-12-22T01:37:23.645Z,28.27
2022-12-22T01:40:09.280Z,35.15
2022-12-22T01:42:54.749Z,33.35
2022-12-22T01:45:46.878Z,28.65
2022-12-22T01:48:34.433Z,25.55
2022-12-22T01:51:23.886Z,24.05
2022-12-22T01:54:10.475Z,22.60
2022-12-22T01:56:56.936Z,25.33
2022-12-22T01:59:44.321Z,26.70
2022-12-22T02:02:30.475Z,26.98
2022-12-22T02:05:19.430Z,30.95
2022-12-22T02:08:23.949Z,23.50
2022-12-22T02:11:26.148Z,22.33
2022-12-22T02:14:30.171Z,23.33
2022-12-22T02:17:29.893Z,28.95
2022-12-22T02:20:42.036Z,28.60
2022-12-22T02:23:58.812Z,26.13
2022-12-22T02:27:13.664Z,28.52
2022-12-22T02:30:05.686Z,24.90
2022-12-22T02:33:01.060Z,28.27
2022-12-22T02:39:07.539Z,29.88
2022-12-22T02:42:10.495Z,26.13
2022-12-22T02:45:38.479Z,29.17
2022-12-22T02:48:26.894Z,29.77
2022-12-22T02:54:06.371Z,26.05
2022-12-22T02:56:52.400Z,24.88
2022-12-22T02:59:37.750Z,27.48
2022-12-22T03:02:24.171Z,24.52
2022-12-22T03:05:09.658Z,28.13
2022-12-22T03:07:55.097Z,29.85
2022-12-22T03:10:40.597Z,23.80
2022-12-22T03:13:25.735Z,27.25
2022-12-22T03:16:11.391Z,22.63
2022-12-22T03:19:01.032Z,27.15
2022-12-22T03:21:46.305Z,28.13
2022-12-22T03:24:31.655Z,24.13
2022-12-22T03:26:59.655Z,28.27
2022-12-22T03:29:26.663Z,21.33
2022-12-22T03:31:53.514Z,22.08
2022-12-22T03:34:20.453Z,25.85
2022-12-22T03:36:47.403Z,30.25
2022-12-22T03:39:14.145Z,26.67
2022-12-22T03:41:59.519Z,21.07
2022-12-22T03:44:46.152Z,24.65
2022-12-22T03:47:14.623Z,27.60
2022-12-22T03:49:41.488Z,23.55
2022-12-22T03:52:08.252Z,19.13
2022-12-22T03:54:34.999Z,21.07
2022-12-22T03:57:02.842Z,22.87
2022-12-22T03:59:29.563Z,24.15
2022-12-22T04:01:56.548Z,25.95
2022-12-22T04:04:26.400Z,23.50
2022-12-22T04:06:54.372Z,24.17
2022-12-22T04:09:22.540Z,21.80
2022-12-22T04:12:07.999Z,22.00
2022-12-22T04:14:35.214Z,20.95
2022-12-22T04:17:06.335Z,20.52
2022-12-22T04:19:33.261Z,25.17
2022-12-22T04:22:00.260Z,22.88
2022-12-22T04:24:27.133Z,19.50
2022-12-22T04:26:53.942Z,22.42
2022-12-22T04:29:20.691Z,20.17
2022-12-22T04:31:47.454Z,23.27
2022-12-22T04:34:14.214Z,19.07
2022-12-22T04:36:41.016Z,22.70
2022-12-22T04:39:07.833Z,20.52
2022-12-22T04:41:34.555Z,17.23
2022-12-22T04:44:01.345Z,19.23
2022-12-22T04:46:31.188Z,21.60
2022-12-22T04:49:00.419Z,16.65
2022-12-22T04:51:28.311Z,20.58
2022-12-22T04:53:55.065Z,21.25
2022-12-22T04:56:24.540Z,19.05
2022-12-22T04:58:53.785Z,21.48
2022-12-22T05:01:20.659Z,19.45
2022-12-22T05:03:48.871Z,18.73
2022-12-22T05:06:18.404Z,15.75
2022-12-22T05:08:45.234Z,19.77
2022-12-22T05:11:11.942Z,16.90
2022-12-22T05:13:39.901Z,17.13
2022-12-22T05:16:11.268Z,20.40
2022-12-22T05:18:38.757Z,20.20
2022-12-22T05:21:17.795Z,23.40
2022-12-22T05:23:44.847Z,18.58
2022-12-22T05:26:14.471Z,16.15
2022-12-22T05:28:42.547Z,16.42
2022-12-22T05:31:15.943Z,20.10
2022-12-22T05:33:43.902Z,21.27
2022-12-22T05:36:15.734Z,24.75
2022-12-22T05:38:44.722Z,18.80
2022-12-22T05:41:11.806Z,20.63
2022-12-22T05:43:39.103Z,21.98
2022-12-22T05:46:09.187Z,20.92
2022-12-22T05:48:39.026Z,26.90
2022-12-22T05:51:07.634Z,21.50
2022-12-22T05:53:34.591Z,16.98
2022-12-22T05:56:01.377Z,22.17
2022-12-22T05:58:28.198Z,16.60
2022-12-22T06:00:59.431Z,18.50
2022-12-22T06:03:27.636Z,19.35
2022-12-22T06:05:54.797Z,16.73
2022-12-22T06:08:21.788Z,19.85
2022-12-22T06:10:48.693Z,14.48
2022-12-22T06:13:15.467Z,18.25
2022-12-22T06:15:42.687Z,15.87
2022-12-22T06:18:09.631Z,71.32
2022-12-22T06:20:36.452Z,36.17
2022-12-22T06:23:03.189Z,33.22
2022-12-22T06:25:29.974Z,16.93
2022-12-22T06:27:56.863Z,15.93
2022-12-22T06:30:32.678Z,19.42
2022-12-22T06:33:01.279Z,14.38
2022-12-22T06:35:28.625Z,13.48
2022-12-22T06:37:55.736Z,13.23
2022-12-22T06:40:22.707Z,15.52
2022-12-22T06:43:09.316Z,12.45
2022-12-22T06:45:41.200Z,13.75
2022-12-22T06:48:10.097Z,15.63
2022-12-22T06:50:39.308Z,13.60
2022-12-22T06:53:08.904Z,13.80
2022-12-22T06:55:36.182Z,12.07
2022-12-22T06:58:05.385Z,13.50
2022-12-22T07:00:32.283Z,13.88
2022-12-22T07:03:01.670Z,16.27
2022-12-22T07:05:30.492Z,14.90
2022-12-22T07:08:02.521Z,12.48
2022-12-22T07:10:51.317Z,14.57
2022-12-22T07:13:24.197Z,14.15
2022-12-22T07:16:00.185Z,13.32
2022-12-22T07:18:33.072Z,14.55
2022-12-22T07:21:01.801Z,14.88
2022-12-22T07:23:30.331Z,15.40
2022-12-22T07:25:57.376Z,14.13
2022-12-22T07:28:24.756Z,14.77
2022-12-22T07:30:52.856Z,15.50
2022-12-22T07:33:20.008Z,12.90
2022-12-22T07:35:47.347Z,32.88
2022-12-22T07:38:14.118Z,34.38
2022-12-22T07:40:43.651Z,25.40
2022-12-22T07:43:12.526Z,18.33
2022-12-22T07:45:41.753Z,17.77
2022-12-22T07:48:30.226Z,18.33
2022-12-22T07:51:05.365Z,15.82
2022-12-22T07:53:33.912Z,17.98
2022-12-22T07:56:06.704Z,16.90
2022-12-22T07:58:42.182Z,15.25
2022-12-22T08:01:09.096Z,18.65
2022-12-22T08:03:35.897Z,18.42
2022-12-22T08:06:05.001Z,17.98
2022-12-22T08:08:47.183Z,16.25
2022-12-22T08:11:16.583Z,14.32
2022-12-22T08:13:43.865Z,18.45
2022-12-22T08:16:14.116Z,13.00
2022-12-22T08:18:41.682Z,16.30
2022-12-22T08:21:11.667Z,14.10
2022-12-22T08:23:38.758Z,17.63
2022-12-22T08:26:20.647Z,13.13
2022-12-22T08:28:52.160Z,15.15
2022-12-22T08:31:19.762Z,14.48
2022-12-22T08:36:15.353Z,11.88
2022-12-22T08:38:45.393Z,13.88
2022-12-22T08:41:16.620Z,11.77
2022-12-22T08:43:43.302Z,10.80
2022-12-22T08:46:10.123Z,12.18
2022-12-22T08:48:40.334Z,9.23
2022-12-22T08:51:07.357Z,10.68
2022-12-22T08:56:23.613Z,10.48
2022-12-22T08:58:51.792Z,11.07
2022-12-22T09:01:19.941Z,10.55
2022-12-22T09:03:51.203Z,10.35
2022-12-22T09:06:23.768Z,6.65
2022-12-22T09:08:59.778Z,7.35
2022-12-22T09:11:27.750Z,17.42
2022-12-22T09:13:57.006Z,14.55
2022-12-22T09:16:25.149Z,9.40
2022-12-22T09:18:52.384Z,11.30
2022-12-22T09:21:19.185Z,14.52
2022-12-22T09:23:47.555Z,11.97
2022-12-22T09:26:18.738Z,15.80
2022-12-22T09:28:50.188Z,12.40
2022-12-22T09:31:18.789Z,8.93
2022-12-22T09:33:46.851Z,10.90
2022-12-22T09:36:19.360Z,11.27
2022-12-22T09:38:46.920Z,9.65
2022-12-22T09:41:22.356Z,6.63
2022-12-22T09:43:53.004Z,6.00
2022-12-22T09:46:26.428Z,6.60
2022-12-22T09:48:55.099Z,8.23
2022-12-22T09:51:27.457Z,3.25
2022-12-22T09:54:00.123Z,5.80
2022-12-22T09:56:29.448Z,4.28
2022-12-22T09:58:57.010Z,3.28
2022-12-22T10:01:48.559Z,4.57
2022-12-22T10:04:35.055Z,4.53
2022-12-22T10:07:22.568Z,1.73
2022-12-22T10:09:51.220Z,4.97
2022-12-22T10:12:21.721Z,4.43
2022-12-22T10:14:50.825Z,6.78
2022-12-22T10:17:33.997Z,4.90
2022-12-22T10:20:22.408Z,3.05
2022-12-22T10:23:16.426Z,4.28
2022-12-22T10:26:27.566Z,2.63
2022-12-22T10:29:00.985Z,6.43
2022-12-22T10:31:31.238Z,4.47
2022-12-22T10:34:15.540Z,2.08
2022-12-22T10:36:51.693Z,1.45
2022-12-22T10:39:26.643Z,6.07
2022-12-22T10:42:00.011Z,4.78
2022-12-22T10:44:30.924Z,3.95
2022-12-22T10:47:17.106Z,3.78
2022-12-22T10:49:50.128Z,4.32
2022-12-22T10:52:23.816Z,2.80
2022-12-22T10:55:15.065Z,5.50
2022-12-22T10:57:43.604Z,4.97
2022-12-22T11:00:25.483Z,4.72
2022-12-22T11:02:56.550Z,3.45
2022-12-22T11:05:23.882Z,1.65
2022-12-22T11:07:51.109Z,4.47
2022-12-22T11:10:33.636Z,1.90
2022-12-22T11:13:41.195Z,4.93
2022-12-22T11:16:42.863Z,2.40
2022-12-22T11:19:32.390Z,6.43
2022-12-22T11:22:20.031Z,5.72
2022-12-22T11:25:14.720Z,7.00
2022-12-22T11:27:46.552Z,3.65
2022-12-22T11:31:02.019Z,3.88
2022-12-22T11:33:50.560Z,5.63
2022-12-22T11:36:57.950Z,5.45
2022-12-22T11:39:40.455Z,3.25
2022-12-22T11:42:13.535Z,5.18
2022-12-22T11:44:50.829Z,2.45
2022-12-22T11:47:41.091Z,2.92
2022-12-22T11:51:01.836Z,4.22
2022-12-22T11:53:32.889Z,3.20
2022-12-22T11:56:17.318Z,2.40
2022-12-22T11:59:09.535Z,4.28
2022-12-22T12:02:13.187Z,3.03
2022-12-22T12:04:44.403Z,4.28
2022-12-22T12:07:45.420Z,2.28
2022-12-22T12:10:20.324Z,4.68
2022-12-22T12:13:02.006Z,5.55
2022-12-22T12:15:47.322Z,3.63
2022-12-22T12:18:32.077Z,3.67
2022-12-22T12:21:24.574Z,6.63
2022-12-22T12:24:03.396Z,5.35
2022-12-22T12:26:37.913Z,12.05
2022-12-22T12:29:23.975Z,8.65
2022-12-22T12:32:16.917Z,6.13
2022-12-22T12:34:49.961Z,7.68
2022-12-22T12:37:30.840Z,3.15
2022-12-22T12:40:03.454Z,6.22
2022-12-22T12:42:32.391Z,6.18
2022-12-22T12:45:02.580Z,5.13
2022-12-22T12:47:30.135Z,6.88
2022-12-22T12:50:16.785Z,5.55
2022-12-22T12:52:48.502Z,8.32
2022-12-22T12:55:32.822Z,4.75
2022-12-22T12:58:02.433Z,4.03
2022-12-22T13:00:32.794Z,6.05
2022-12-22T13:06:56.846Z,6.32
2022-12-22T13:09:50.031Z,7.05
2022-12-22T13:12:40.967Z,4.32
2022-12-22T13:15:28.549Z,9.82
2022-12-22T13:18:01.343Z,3.08
2022-12-22T13:20:32.702Z,3.50
2022-12-22T13:23:02.486Z,4.85
2022-12-22T13:25:54.274Z,6.88
2022-12-22T13:28:23.864Z,8.73
2022-12-22T13:30:56.838Z,5.30
2022-12-22T13:33:27.303Z,6.65
2022-12-22T13:35:59.097Z,9.38
2022-12-22T13:38:31.146Z,4.10
2022-12-22T13:41:00.328Z,4.18
2022-12-22T13:43:29.288Z,6.18
2022-12-22T13:46:01.049Z,6.85
2022-12-22T13:48:45.412Z,6.25
2022-12-22T13:51:28.514Z,4.85
2022-12-22T13:54:08.371Z,6.72
2022-12-22T13:56:45.991Z,4.60
2022-12-22T13:59:43.111Z,4.97
2022-12-22T14:02:11.943Z,5.43
2022-12-22T14:04:41.095Z,4.90
2022-12-22T14:07:20.237Z,4.97
2022-12-22T14:09:54.762Z,7.65
2022-12-22T14:12:24.701Z,2.42
2022-12-22T14:14:53.723Z,5.82
2022-12-22T14:17:53.504Z,3.10
2022-12-22T14:20:40.277Z,3.55
2022-12-22T14:23:19.732Z,5.10
2022-12-22T14:25:48.620Z,6.78
2022-12-22T14:28:18.456Z,3.30
2022-12-22T14:30:48.634Z,4.97
2022-12-22T14:33:26.207Z,4.82
2022-12-22T14:36:13.592Z,4.45
2022-12-22T14:38:51.092Z,5.72
2022-12-22T14:41:42.045Z,12.13
2022-12-22T14:44:42.746Z,14.30
2022-12-22T14:47:17.985Z,10.27
2022-12-22T14:50:01.604Z,7.63
2022-12-22T14:52:51.142Z,7.82
2022-12-22T14:55:38.411Z,8.25
2022-12-22T14:58:20.438Z,5.55
2022-12-22T15:01:08.550Z,6.22
2022-12-22T15:03:37.804Z,7.07
2022-12-22T15:06:35.215Z,13.15
2022-12-22T15:09:06.487Z,9.68
2022-12-22T15:14:24.586Z,6.05
2022-12-22T15:16:56.280Z,8.10
2022-12-22T15:19:37.028Z,10.52
2022-12-22T15:22:07.555Z,13.90
2022-12-22T15:24:34.561Z,6.70
2022-12-22T15:27:01.727Z,10.85
2022-12-22T15:29:29.528Z,21.02
2022-12-22T15:31:56.650Z,12.82
2022-12-22T15:34:31.752Z,11.13
2022-12-22T15:36:58.649Z,8.60
2022-12-22T15:39:27.057Z,9.13
2022-12-22T15:41:54.643Z,13.20
2022-12-22T15:46:56.421Z,13.50
2022-12-22T15:49:26.795Z,16.13
2022-12-22T15:51:57.425Z,16.02
2022-12-22T15:54:33.494Z,19.23
2022-12-22T15:57:01.295Z,15.20
2022-12-22T15:59:29.247Z,27.42
2022-12-22T16:02:01.686Z,17.85
2022-12-22T16:04:29.413Z,15.63
2022-12-22T16:06:59.249Z,16.80
2022-12-22T16:09:31.348Z,15.15
2022-12-22T16:12:01.792Z,25.52
2022-12-22T16:14:32.448Z,31.52
2022-12-22T16:17:02.434Z,25.77
2022-12-22T16:19:29.253Z,34.17
2022-12-22T16:21:56.191Z,20.02
2022-12-22T16:24:35.925Z,19.27
2022-12-22T16:27:12.697Z,17.45
2022-12-22T16:29:43.637Z,15.23
2022-12-22T16:32:17.843Z,16.88
2022-12-22T16:34:45.485Z,14.60
2022-12-22T16:37:13.415Z,19.35
2022-12-22T16:39:41.415Z,20.83
2022-12-22T16:45:05.450Z,10.68
2022-12-22T16:47:35.060Z,20.65
2022-12-22T16:50:02.800Z,13.98
2022-12-22T16:55:27.668Z,14.43
2022-12-22T16:57:57.152Z,23.98
2022-12-22T17:00:29.594Z,16.75
2022-12-22T17:03:16.896Z,10.18
2022-12-22T17:05:52.844Z,15.25
2022-12-22T17:08:30.313Z,17.00
2022-12-22T17:11:03.398Z,11.10
2022-12-22T17:13:35.611Z,12.48
2022-12-22T17:16:02.626Z,15.63
2022-12-22T17:18:31.281Z,17.00
2022-12-22T17:21:00.137Z,9.73
2022-12-22T17:23:40.330Z,10.02
2022-12-22T17:26:10.226Z,10.05
2022-12-22T17:28:40.012Z,13.05
2022-12-22T17:31:22.655Z,14.90
2022-12-22T17:33:49.992Z,7.32
2022-12-22T17:36:28.580Z,7.22
2022-12-22T17:38:55.721Z,10.70
2022-12-22T17:41:22.583Z,12.48
2022-12-22T17:43:49.268Z,10.27
2022-12-22T17:46:18.346Z,18.27
2022-12-22T17:48:46.042Z,15.52
2022-12-22T17:51:23.643Z,15.00
2022-12-22T17:53:51.471Z,12.88
2022-12-22T17:56:24.476Z,13.32
2022-12-22T17:58:51.876Z,15.27
2022-12-22T18:01:23.281Z,12.00
2022-12-22T18:03:50.113Z,4.57
2022-12-22T18:06:19.983Z,7.55
2022-12-22T18:08:47.250Z,11.93
2022-12-22T18:11:14.683Z,8.38
2022-12-22T18:13:45.094Z,11.00
2022-12-22T18:16:17.353Z,19.50
2022-12-22T18:18:44.821Z,16.23
2022-12-22T18:21:34.631Z,13.68
2022-12-22T18:24:04.317Z,16.45
2022-12-22T18:26:31.656Z,11.00
2022-12-22T18:29:04.064Z,9.90
2022-12-22T18:31:36.907Z,12.10
2022-12-22T18:34:04.747Z,11.05
2022-12-22T18:39:01.482Z,18.90
2022-12-22T18:41:31.960Z,12.98
2022-12-22T18:43:59.761Z,19.02
2022-12-22T18:46:34.369Z,17.58
2022-12-22T18:49:07.487Z,19.92
2022-12-22T18:51:34.390Z,22.85
2022-12-22T18:54:02.773Z,25.45
2022-12-22T18:56:29.470Z,23.50
2022-12-22T18:58:56.323Z,27.42
2022-12-22T19:01:30.368Z,15.13
2022-12-22T19:03:58.832Z,15.75
2022-12-22T19:06:25.681Z,12.55
2022-12-22T19:08:52.983Z,12.13
2022-12-22T19:11:28.878Z,11.18
2022-12-22T19:13:55.904Z,14.73
2022-12-22T19:16:26.021Z,9.50
2022-12-22T19:18:52.785Z,8.63
2022-12-22T19:21:20.778Z,6.32
2022-12-22T19:23:50.121Z,10.13
2022-12-22T19:26:22.750Z,8.70
2022-12-22T19:29:00.592Z,4.75
2022-12-22T19:31:31.104Z,16.02
2022-12-22T19:34:06.370Z,9.07
2022-12-22T19:36:34.418Z,10.10
2022-12-22T19:39:05.138Z,8.77
2022-12-22T19:41:45.334Z,6.10
2022-12-22T19:44:25.101Z,7.18
2022-12-22T19:46:59.640Z,5.30
2022-12-22T19:49:27.975Z,7.03
2022-12-22T19:52:00.498Z,7.15
2022-12-22T19:54:28.051Z,8.57
2022-12-22T19:56:56.354Z,8.27
2022-12-22T19:59:44.327Z,5.18
2022-12-22T20:02:25.567Z,7.60
2022-12-22T20:05:01.637Z,11.55
2022-12-22T20:07:32.796Z,13.57
2022-12-22T20:09:59.702Z,14.13
2022-12-22T20:12:38.120Z,14.00
2022-12-22T20:15:20.620Z,13.10
2022-12-22T20:17:48.996Z,11.00
2022-12-22T20:20:22.925Z,12.98
2022-12-22T20:22:55.128Z,13.73
2022-12-22T20:25:26.635Z,14.80
2022-12-22T20:27:55.756Z,15.52
2022-12-22T20:30:29.967Z,17.33
2022-12-22T20:32:57.212Z,13.27
2022-12-22T20:35:24.948Z,10.40
2022-12-22T20:40:35.538Z,11.82
2022-12-22T20:43:03.300Z,9.02
2022-12-22T20:45:31.342Z,12.82
2022-12-22T20:48:01.649Z,18.70
2022-12-22T20:50:33.344Z,9.55
2022-12-22T20:53:01.449Z,11.38
2022-12-22T20:55:30.280Z,11.93
2022-12-22T20:57:58.741Z,15.57
2022-12-22T21:00:34.585Z,27.38
2022-12-22T21:03:01.500Z,45.10
2022-12-22T21:05:28.318Z,31.52
2022-12-22T21:07:57.075Z,16.03
2022-12-22T21:10:28.316Z,19.42
2022-12-22T21:12:55.154Z,12.68
2022-12-22T21:15:28.064Z,13.80
2022-12-22T21:17:58.464Z,16.38
2022-12-22T21:20:27.816Z,18.45
2022-12-22T21:22:54.739Z,15.15
2022-12-22T21:25:22.477Z,17.17
2022-12-22T21:30:23.134Z,12.10
2022-12-22T21:32:51.823Z,21.48
2022-12-22T21:35:24.776Z,16.15
2022-12-22T21:37:53.750Z,11.40
2022-12-22T21:40:25.910Z,10.73
2022-12-22T21:42:54.223Z,11.80
2022-12-22T21:45:24.220Z,14.32
2022-12-22T21:47:51.494Z,14.65
2022-12-22T21:50:25.736Z,13.65
2022-12-22T21:52:53.134Z,10.65
2022-12-22T21:55:24.638Z,15.90
2022-12-22T21:57:58.273Z,11.07
2022-12-22T22:00:29.072Z,14.88
2022-12-22T22:02:57.129Z,16.40
2022-12-22T22:05:28.578Z,11.00
2022-12-22T22:07:57.865Z,8.45
2022-12-22T22:10:28.555Z,3.58
2022-12-22T22:12:56.038Z,6.75
2022-12-22T22:15:25.518Z,12.05
2022-12-22T22:17:52.944Z,7.78
2022-12-22T22:20:25.467Z,8.27
2022-12-22T22:22:54.899Z,12.13
2022-12-22T22:25:22.362Z,5.65
2022-12-22T22:28:01.799Z,6.70
2022-12-22T22:30:28.658Z,3.95
2022-12-22T22:32:55.732Z,8.07
2022-12-22T22:35:24.358Z,6.55
2022-12-22T22:37:52.276Z,7.65
2022-12-22T22:40:21.629Z,7.05
2022-12-22T22:42:48.650Z,5.43
2022-12-22T22:45:22.981Z,4.55
2022-12-22T22:47:53.623Z,4.18
2022-12-22T22:50:22.832Z,2.65
2022-12-22T22:52:50.813Z,3.10
2022-12-22T22:55:17.705Z,4.80
2022-12-22T22:57:44.551Z,11.75
2022-12-22T23:00:14.199Z,5.13
2022-12-22T23:02:41.732Z,9.95
2022-12-22T23:07:36.500Z,9.77
2022-12-22T23:10:05.344Z,8.52
2022-12-22T23:12:33.563Z,7.35
2022-12-22T23:15:01.849Z,10.00
2022-12-22T23:17:29.229Z,6.68
2022-12-22T23:19:56.089Z,9.55
2022-12-22T23:22:23.945Z,9.85
2022-12-22T23:24:50.715Z,3.20
2022-12-22T23:27:17.542Z,5.13
2022-12-22T23:29:44.592Z,6.20
2022-12-22T23:32:11.332Z,6.57
2022-12-22T23:34:38.052Z,13.53
2022-12-22T23:37:04.960Z,6.78
2022-12-22T23:39:31.775Z,6.95
2022-12-22T23:41:58.514Z,12.37
2022-12-22T23:44:26.770Z,9.83
2022-12-22T23:49:29.017Z,9.73
2022-12-22T23:51:56.745Z,12.80
2022-12-22T23:54:23.572Z,9.45
2022-12-22T23:56:50.514Z,11.00
2022-12-22T23:59:17.203Z,7.93
